Latest Weather Observations for Toowoomba

IDQ60901

Issued at 4:52 pm EST Thursday 3 September 2026 (issued every 10 minutes, with the page automatically refreshed every 10 minutes)

About weather observations | Map of Brisbane area stations | Latest observations for Brisbane area | Other Formats
Station Details ID: 041529 Name: TOOWOOMBA AIRPORT Lat: -27.54 Lon: 151.91 Height: 640.9 m
Data from the previous 72 hours. | See also: Recent months at Toowoomba
Date/Time
EST
Temp
°C
App
Temp
°C
Dew
Point
°C
Rel
Hum
%
Delta-T
°C
Wind Press
QNH
hPa
Press
MSL
hPa
Rain since
9am
mm
Dir  Spd
km/h
Gust
km/h
Spd
kts
Gust
kts
03/04:30pm 27.0 21.4 5.3 25 11.5 W 24 35 13 19 1020.1 1018.3 0.0
03/04:00pm 27.2 20.9 5.5 25 11.5 WNW 28 41 15 22 1020.0 1018.2 0.0
03/03:30pm 27.4 22.6 7.3 28 11.0 W 22 33 12 18 1020.1 1018.3 0.0
03/03:00pm 27.2 22.0 7.1 28 11.0 W 24 39 13 21 1020.3 1018.5 0.0
03/02:30pm 26.8 20.9 7.3 29 10.7 WNW 28 37 15 20 1020.5 1018.7 0.0
03/02:00pm 26.6 21.2 8.1 31 10.2 WNW 26 41 14 22 1020.8 1019.0 0.0
03/01:30pm 26.5 21.1 8.0 31 10.2 WNW 26 37 14 20 1021.2 1019.4 0.0
03/01:00pm 25.8 20.4 7.9 32 9.8 WNW 26 35 14 19 1021.5 1019.7 0.0
03/12:30pm 25.5 20.3 7.1 31 10.0 WNW 24 39 13 21 1022.0 1020.2 0.0
03/12:00pm 25.6 20.9 9.4 36 9.1 NW 24 30 13 16 1022.5 1020.7 0.0
03/11:30am 24.8 19.5 8.3 35 9.1 NW 26 35 14 19 1023.0 1021.3 0.0
03/11:00am 24.3 19.4 8.3 36 8.8 WNW 24 37 13 20 1023.4 1021.7 0.0
03/10:30am 23.2 18.9 9.2 41 7.8 WNW 22 33 12 18 1023.9 1022.1 0.0
03/10:00am 21.9 18.3 10.7 49 6.3 NW 20 30 11 16 1024.1 1022.3 0.0
03/09:30am 20.0 16.3 10.1 53 5.5 NW 20 28 11 15 1024.3 1022.5 0.0
03/09:00am 19.1 15.0 10.1 56 4.9 WNW 22 32 12 17 1024.3 1022.5 0.0
03/08:30am 17.2 13.3 9.6 61 4.1 WNW 20 28 11 15 1024.4 1022.7 0.0
03/08:00am 16.4 11.6 8.9 61 4.0 NW 24 32 13 17 1024.2 1022.4 0.0
03/07:30am 15.7 11.5 8.2 61 3.9 NW 20 26 11 14 1024.1 1022.3 0.0
03/07:00am 14.5 11.1 7.8 64 3.4 NW 15 20 8 11 1023.6 1021.8 0.0
03/06:30am 13.0 10.3 7.5 69 2.8 NW 11 15 6 8 1023.2 1021.5 0.0
03/06:00am 12.7 10.3 7.2 69 2.7 NW 9 11 5 6 1023.0 1021.3 0.0
03/05:30am 13.0 10.6 7.0 67 3.0 NW 9 13 5 7 1022.6 1020.8 0.0
03/05:00am 13.6 11.3 7.4 66 3.1 NW 9 11 5 6 1022.4 1020.6 0.0
03/04:30am 13.2 10.9 7.4 68 2.9 NW 9 11 5 6 1022.2 1020.4 0.0
03/04:00am 13.4 11.1 7.4 67 3.0 NNW 9 11 5 6 1022.1 1020.3 0.0
03/03:30am 13.9 11.2 7.4 65 3.3 N 11 15 6 8 1022.0 1020.2 0.0
03/03:00am 14.1 11.0 7.4 64 3.4 N 13 17 7 9 1022.2 1020.4 0.0
03/02:30am 14.5 11.0 7.3 62 3.7 N 15 17 8 9 1022.1 1020.3 0.0
03/02:00am 14.3 10.7 6.9 61 3.7 N 15 20 8 11 1022.2 1020.4 0.0
03/01:30am 14.6 10.6 6.7 59 4.0 N 17 22 9 12 1022.6 1020.8 0.0
03/01:00am 15.2 11.5 6.5 56 4.4 N 15 19 8 10 1022.8 1021.0 0.0
03/12:30am 15.7 12.0 6.4 54 4.7 N 15 19 8 10 1023.1 1021.4 0.0
03/12:00am 16.0 12.7 6.4 53 4.8 N 13 19 7 10 1023.2 1021.5 0.0
 
Date/Time
EST
Temp
°C
App
Temp
°C
Dew
Point
°C
Rel
Hum
%
Delta-T
°C
Wind Press
QNH
hPa
Press
MSL
hPa
Rain since
9am
mm
Dir  Spd
km/h
Gust
km/h
Spd
kts
Gust
kts
02/11:30pm 17.1 14.6 6.6 50 5.4 N 9 11 5 6 1023.1 1021.4 0.0
02/11:00pm 14.8 12.8 6.9 59 4.0 N 7 9 4 5 1023.3 1021.6 0.0
02/10:30pm 15.8 13.8 7.1 56 4.4 N 7 9 4 5 1023.3 1021.6 0.0
02/10:00pm 17.7 15.2 6.6 48 5.7 N 9 9 5 5 1023.3 1021.6 0.0
02/09:30pm 17.6 15.2 6.8 49 5.6 N 9 9 5 5 1023.4 1021.7 0.0
02/09:00pm 16.5 14.5 6.9 53 4.9 N 7 7 4 4 1023.4 1021.7 0.0
02/08:30pm 17.3 15.2 6.8 50 5.4 N 7 9 4 5 1023.2 1021.5 0.0
02/08:00pm 18.2 16.2 7.0 48 5.8 NNW 7 9 4 5 1023.0 1021.3 0.0
02/07:30pm 17.4 16.7 6.9 50 5.4 CALM 0 0 0 0 1022.9 1021.1 0.0
02/07:00pm 18.6 17.9 7.1 47 6.0 CALM 0 9 0 5 1022.7 1020.9 0.0
02/06:30pm 18.5 17.8 7.0 47 6.0 CALM 0 0 0 0 1022.4 1020.6 0.0
02/06:00pm 19.6 18.9 7.0 44 6.6 CALM 0 0 0 0 1022.3 1020.5 0.0
02/05:30pm 20.6 19.1 6.9 41 7.2 NW 4 7 2 4 1022.1 1020.3 0.0
02/05:00pm 20.4 18.7 7.4 43 6.9 NW 6 9 3 5 1022.0 1020.2 0.0
02/04:30pm 20.8 17.2 6.7 40 7.4 W 15 19 8 10 1021.9 1020.1 0.0
02/04:00pm 22.0 18.0 6.7 37 8.0 W 17 26 9 14 1021.5 1019.7 0.0
02/03:30pm 21.3 19.1 6.4 38 7.8 WSW 7 17 4 9 1021.9 1020.1 0.0
02/03:00pm 21.7 18.0 6.4 37 8.0 W 15 26 8 14 1022.1 1020.3 0.0
02/02:30pm 21.7 18.6 7.2 39 7.7 WSW 13 24 7 13 1022.3 1020.5 0.0
02/02:00pm 22.4 18.5 7.0 37 8.2 WSW 17 24 9 13 1022.5 1020.7 0.0
02/01:30pm 21.3 18.6 7.2 40 7.5 W 11 19 6 10 1023.0 1021.3 0.0
02/01:00pm 21.7 17.4 7.2 39 7.7 NW 19 30 10 16 1023.4 1021.7 0.0
02/12:30pm 21.4 17.2 7.6 41 7.4 WNW 19 28 10 15 1024.1 1022.3 0.0
02/12:00pm 21.1 16.7 6.6 39 7.6 WNW 19 26 10 14 1024.6 1022.9 0.0
02/11:30am 20.2 16.6 8.2 46 6.4 NW 17 24 9 13 1025.4 1023.6 0.0
02/11:00am 20.2 16.1 7.9 45 6.5 NW 19 28 10 15 1026.0 1024.3 0.0
02/10:30am 19.2 15.8 9.1 52 5.5 NW 17 26 9 14 1026.5 1024.8 0.0
02/10:00am 18.1 14.3 9.2 56 4.8 WNW 19 24 10 13 1026.7 1025.0 0.0
02/09:30am 17.3 13.9 9.2 59 4.4 WNW 17 22 9 12 1027.0 1025.2 0.0
02/09:00am 16.1 13.9 9.3 64 3.6 WNW 11 17 6 9 1027.2 1025.5 0.0
02/08:30am 14.4 12.0 10.2 76 2.3 WNW 13 17 7 9 1027.1 1025.3 0.0
02/08:00am 14.1 11.6 9.7 75 2.3 NW 13 17 7 9 1027.0 1025.2 0.0
02/07:30am 13.5 11.1 9.9 79 1.9 NW 13 17 7 9 1026.7 1025.0 0.0
02/07:00am 12.5 10.3 9.3 81 1.7 NW 11 15 6 8 1026.4 1024.7 0.0
02/06:30am 12.0 10.0 8.5 79 1.8 N 9 11 5 6 1025.8 1024.1 0.0
02/06:00am 11.8 9.8 8.6 81 1.6 N 9 11 5 6 1025.6 1023.8 0.0
02/05:30am 12.2 9.5 9.0 81 1.7 N 13 19 7 10 1025.0 1023.3 0.0
02/05:00am 12.1 10.3 9.3 83 1.5 N 9 15 5 8 1025.1 1023.4 0.0
02/04:30am 12.3 10.2 9.9 85 1.3 N 11 15 6 8 1025.0 1023.3 0.0
02/04:00am 12.3 9.9 9.9 85 1.3 N 13 15 7 8 1024.9 1023.2 0.0
02/03:30am 12.6 9.6 9.4 81 1.7 N 15 22 8 12 1024.9 1023.2 0.0
02/03:00am 12.8 11.0 9.6 81 1.7 NNE 9 15 5 8 1025.3 1023.5 0.0
02/02:30am 13.0 10.6 10.2 83 1.5 NNE 13 17 7 9 1025.8 1024.1 0.0
02/02:00am 12.7 11.1 10.2 85 1.3 ENE 9 11 5 6 1026.0 1024.3 0.0
02/01:30am 12.6 10.7 10.5 87 1.1 ENE 11 13 6 7 1026.4 1024.7 0.0
02/01:00am 12.1 10.6 10.7 91 0.7 ENE 9 11 5 6 1026.6 1024.9 0.0
02/12:30am 12.1 9.8 10.3 89 1.0 ENE 13 17 7 9 1026.7 1025.0 0.0
02/12:00am 11.9 9.5 10.1 89 0.9 E 13 15 7 8 1026.7 1025.0 0.0
 
Date/Time
EST
Temp
°C
App
Temp
°C
Dew
Point
°C
Rel
Hum
%
Delta-T
°C
Wind Press
QNH
hPa
Press
MSL
hPa
Rain since
9am
mm
Dir  Spd
km/h
Gust
km/h
Spd
kts
Gust
kts
01/11:30pm 12.6 9.8 10.1 85 1.3 ENE 15 17 8 9 1027.1 1025.3 0.0
01/11:00pm 13.0 11.8 10.2 83 1.5 ENE 7 11 4 6 1027.5 1025.8 0.0
01/10:30pm 13.5 11.2 10.3 81 1.7 ENE 13 17 7 9 1027.4 1025.7 0.0
01/10:00pm 13.8 11.5 10.6 81 1.7 ENE 13 15 7 8 1027.5 1025.8 0.0
01/09:30pm 13.8 11.2 10.6 81 1.7 ENE 15 17 8 9 1027.5 1025.8 0.0
01/09:00pm 13.8 11.2 10.6 81 1.7 E 15 19 8 10 1027.4 1025.7 0.0
01/08:30pm 14.0 11.7 10.4 79 1.9 E 13 17 7 9 1027.4 1025.7 0.0
01/08:00pm 14.8 12.2 10.6 76 2.3 ENE 15 19 8 10 1027.2 1025.5 0.0
01/07:30pm 15.1 12.8 10.5 74 2.5 ENE 13 15 7 8 1027.1 1025.3 0.0
01/07:00pm 15.8 13.5 10.3 70 3.0 ENE 13 15 7 8 1027.1 1025.3 0.0
01/06:30pm 16.5 13.7 10.1 66 3.5 ENE 15 19 8 10 1026.9 1025.1 0.0
01/06:00pm 16.8 14.1 10.4 66 3.5 ENE 15 19 8 10 1026.6 1024.9 0.0
01/05:30pm 17.1 13.7 10.5 65 3.6 E 19 24 10 13 1026.4 1024.7 0.0
01/05:00pm 17.6 14.9 10.2 62 4.0 E 15 20 8 11 1026.3 1024.6 0.0
01/04:30pm 17.9 15.0 9.5 58 4.6 ENE 15 22 8 12 1026.3 1024.6 0.0
01/04:00pm 18.0 14.6 9.1 56 4.8 ENE 17 20 9 11 1026.4 1024.7 0.0
01/03:30pm 18.0 14.2 9.1 56 4.8 ENE 19 24 10 13 1026.4 1024.7 0.0
01/03:00pm 18.0 13.8 9.9 59 4.4 ENE 22 28 12 15 1026.6 1024.9 0.0
01/02:30pm 18.5 14.8 9.3 55 5.0 E 19 26 10 14 1026.9 1025.1 0.0
01/02:00pm 19.6 15.9 10.3 55 5.1 E 20 28 11 15 1027.2 1025.5 0.0
01/01:30pm 19.4 15.7 9.3 52 5.5 E 19 26 10 14 1027.7 1026.0 0.0
01/01:00pm 19.4 16.3 7.2 45 6.4 SSE 13 22 7 12 1028.1 1026.4 0.0
01/12:30pm 19.1 15.5 9.9 55 5.1 ESE 19 28 10 15 1028.6 1026.9 0.0
01/12:00pm 18.9 15.4 10.2 57 4.8 ESE 19 26 10 14 1029.2 1027.5 0.0
01/11:30am 18.3 14.0 9.4 56 4.8 E 22 28 12 15 1029.9 1028.3 0.0
01/11:00am 17.8 13.8 10.4 62 4.1 E 22 30 12 16 1030.4 1028.7 0.0
01/10:30am 17.6 13.4 11.2 66 3.6 E 24 32 13 17 1030.7 1029.0 0.0
01/10:00am 16.6 11.5 10.5 67 3.3 E 28 35 15 19 1031.0 1029.3 0.0
01/09:30am 15.8 10.9 11.2 74 2.5 E 28 37 15 20 1031.1 1030.3 0.0
01/09:00am 15.0 10.2 11.6 80 1.9 E 28 35 15 19 1031.2 1030.5 0.0
01/08:30am 14.4 9.5 11.4 82 1.7 E 28 33 15 18 1031.1 1030.3 0.0
01/08:00am 14.0 9.3 11.9 87 1.2 E 28 33 15 18 1031.0 1030.2 0.0
01/07:30am 12.8 7.8 11.0 89 1.0 E 28 33 15 18 1030.6 1029.8 0.0
01/07:00am 12.2 7.5 10.6 90 0.9 E 26 33 14 18 1030.1 1029.4 0.0
01/06:30am 11.5 6.3 10.2 92 0.7 E 28 33 15 18 1029.7 1028.9 0.0
01/06:00am 11.2 5.9 10.0 92 0.6 E 28 32 15 17 1029.4 1028.6 0.0
01/05:30am 11.2 6.0 10.3 94 0.5 E 28 32 15 17 1029.1 1028.3 0.0
01/05:00am 11.3 6.2 10.7 96 0.3 E 28 32 15 17 1029.0 1028.2 0.0
01/04:30am 11.3 6.3 10.8 97 0.3 E 28 33 15 18 1028.6 1027.8 0.0
01/04:00am 11.4 6.8 10.9 97 0.3 E 26 33 14 18 1028.7 1027.9 0.0
01/03:30am 11.4 6.5 11.4 100 0.0 E 28 33 15 18 1028.8 1028.0 0.0
01/03:00am 11.6 6.7 11.4 99 0.1 E 28 32 15 17 1029.0 1028.2 0.0
01/02:30am 11.7 6.9 11.5 99 0.1 E 28 33 15 18 1029.4 1028.6 0.0
01/02:14am 11.9 7.1 11.6 98 0.2 E 28 33 15 18 1029.5 1028.7 0.0
01/02:00am 12.1 7.3 11.8 98 0.2 E 28 33 15 18 1029.7 1028.9 0.0
01/01:30am 12.4 8.5 12.2 99 0.1 E 24 30 13 16 1030.1 1029.4 0.0
01/01:00am 12.4 8.5 12.2 99 0.1 E 24 33 13 18 1030.4 1029.6 0.0
01/12:30am 12.6 8.7 12.1 97 0.3 E 24 33 13 18 1030.6 1029.8 0.0
01/12:00am 12.8 8.9 12.2 96 0.3 E 24 32 13 17 1031.1 1030.3 0.0
 
Date/Time
EST
Temp
°C
App
Temp
°C
Dew
Point
°C
Rel
Hum
%
Delta-T
°C
Wind Press
QNH
hPa
Press
MSL
hPa
Rain since
9am
mm
Dir  Spd
km/h
Gust
km/h
Spd
kts
Gust
kts
31/11:30pm 13.3 10.3 12.4 94 0.5 E 20 32 11 17 1031.4 1030.7 0.0
31/11:00pm 13.5 10.4 12.2 92 0.7 E 20 26 11 14 1031.6 1030.9 0.0
31/10:42pm 13.5 10.4 12.1 91 0.8 E 20 28 11 15 1031.7 1031.0 0.0
31/10:30pm 13.4 9.4 11.8 90 0.9 E 24 32 13 17 1031.7 1031.0 0.0
31/10:23pm 13.4 9.4 11.8 90 0.9 E 24 32 13 17 1031.7 1031.0 0.0
31/10:13pm 13.4 9.0 11.6 89 1.0 E 26 35 14 19 1031.6 1030.9 0.0
31/10:12pm 13.4 8.6 11.8 90 0.9 E 28 35 15 19 1031.6 1030.9 0.0
31/10:00pm 13.4 9.0 11.6 89 1.0 E 26 35 14 19 1031.5 1030.8 0.0
31/09:30pm 13.5 9.1 11.6 88 1.0 E 26 33 14 18 1031.4 1030.7 0.0
31/09:21pm 13.5 8.7 11.6 88 1.0 E 28 37 15 20 1031.4 1030.7 0.0
31/09:00pm 13.5 8.6 11.4 87 1.1 E 28 35 15 19 1031.3 1030.6 0.0
31/08:30pm 13.7 8.7 10.9 83 1.5 E 28 37 15 20 1030.9 1030.1 0.0
31/08:00pm 14.1 9.1 10.9 81 1.7 E 28 37 15 20 1030.9 1030.1 0.0
31/07:30pm 14.3 9.0 11.3 82 1.7 E 30 39 16 21 1030.6 1029.8 0.0
31/07:00pm 15.1 10.3 11.7 80 1.9 E 28 35 15 19 1030.0 1029.3 0.0
31/06:30pm 15.9 11.3 11.1 73 2.7 E 26 33 14 18 1029.8 1029.0 0.0
31/06:00pm 17.0 13.0 8.2 56 4.6 E 19 24 10 13 1029.5 1028.7 0.0
31/05:30pm 17.9 13.4 7.0 49 5.6 E 20 24 11 13 1029.4 1028.6 0.0
31/05:00pm 18.7 14.8 6.9 46 6.1 E 17 19 9 10 1029.3 1028.5 0.0

Latest Capital City Observations: Canberra | Sydney | Melbourne | Brisbane | Adelaide | Perth | Hobart | Darwin

Other formats

Comma delimited format used in spreadsheet applications
http://www.bom.gov.au/fwo/IDQ60901/IDQ60901.95551.axf

JavaScript Object Notation format (JSON) in row-major order
http://www.bom.gov.au/fwo/IDQ60901/IDQ60901.95551.json

Data quality

Most of these data are generated automatically and are frequently updated. Quality checks on data are not normally performed. It is possible for incorrect values to appear. Refer to information at About Latest Weather Observations and please check the disclaimer before using these data.